sensor_id;sensor_type;location;lat;lon;timestamp;temperature;humidity
18339;DHT22;9295;44.484;11.240;2024-01-27T00:01:10;5.10;99.90
18339;DHT22;9295;44.484;11.240;2024-01-27T00:03:39;5.10;99.90
18339;DHT22;9295;44.484;11.240;2024-01-27T00:06:07;5.10;99.90
18339;DHT22;9295;44.484;11.240;2024-01-27T00:08:36;5.10;99.90
18339;DHT22;9295;44.484;11.240;2024-01-27T00:11:05;5.00;99.90
18339;DHT22;9295;44.484;11.240;2024-01-27T00:13:33;5.00;99.90
18339;DHT22;9295;44.484;11.240;2024-01-27T00:16:02;5.00;99.90
18339;DHT22;9295;44.484;11.240;2024-01-27T00:18:32;5.00;99.90
18339;DHT22;9295;44.484;11.240;2024-01-27T00:21:01;5.00;99.90
18339;DHT22;9295;44.484;11.240;2024-01-27T00:23:29;5.10;99.90
18339;DHT22;9295;44.484;11.240;2024-01-27T00:25:59;5.10;99.90
18339;DHT22;9295;44.484;11.240;2024-01-27T00:28:27;5.10;99.90
18339;DHT22;9295;44.484;11.240;2024-01-27T00:30:56;5.10;99.90
18339;DHT22;9295;44.484;11.240;2024-01-27T00:33:24;5.10;99.90
18339;DHT22;9295;44.484;11.240;2024-01-27T00:35:54;5.00;99.90
18339;DHT22;9295;44.484;11.240;2024-01-27T00:38:23;5.00;99.90
18339;DHT22;9295;44.484;11.240;2024-01-27T00:40:51;5.00;99.90
18339;DHT22;9295;44.484;11.240;2024-01-27T00:43:20;5.00;99.90
18339;DHT22;9295;44.484;11.240;2024-01-27T00:45:48;4.90;99.90
18339;DHT22;9295;44.484;11.240;2024-01-27T00:48:17;4.90;99.90
18339;DHT22;9295;44.484;11.240;2024-01-27T00:50:46;4.90;99.90
18339;DHT22;9295;44.484;11.240;2024-01-27T00:53:16;4.90;99.90
18339;DHT22;9295;44.484;11.240;2024-01-27T00:55:45;4.90;99.90
18339;DHT22;9295;44.484;11.240;2024-01-27T00:58:13;4.90;99.90
18339;DHT22;9295;44.484;11.240;2024-01-27T01:00:42;4.90;99.90
18339;DHT22;9295;44.484;11.240;2024-01-27T01:03:10;4.80;99.90
18339;DHT22;9295;44.484;11.240;2024-01-27T01:05:39;4.80;99.90
18339;DHT22;9295;44.484;11.240;2024-01-27T01:08:08;4.80;99.90
18339;DHT22;9295;44.484;11.240;2024-01-27T01:10:38;4.80;99.90
18339;DHT22;9295;44.484;11.240;2024-01-27T01:13:06;4.80;99.90
18339;DHT22;9295;44.484;11.240;2024-01-27T01:15:35;4.80;99.90
18339;DHT22;9295;44.484;11.240;2024-01-27T01:18:04;4.80;99.90
18339;DHT22;9295;44.484;11.240;2024-01-27T01:20:33;4.80;99.90
18339;DHT22;9295;44.484;11.240;2024-01-27T01:23:01;4.70;99.90
18339;DHT22;9295;44.484;11.240;2024-01-27T01:25:30;4.70;99.90
18339;DHT22;9295;44.484;11.240;2024-01-27T01:28:00;4.70;99.90
18339;DHT22;9295;44.484;11.240;2024-01-27T01:30:29;4.70;99.90
18339;DHT22;9295;44.484;11.240;2024-01-27T01:32:57;4.60;99.90
18339;DHT22;9295;44.484;11.240;2024-01-27T01:35:26;4.60;99.90
18339;DHT22;9295;44.484;11.240;2024-01-27T01:37:54;4.60;99.90
18339;DHT22;9295;44.484;11.240;2024-01-27T01:40:23;4.60;99.90
18339;DHT22;9295;44.484;11.240;2024-01-27T01:42:51;4.50;99.90
18339;DHT22;9295;44.484;11.240;2024-01-27T01:45:21;4.40;99.90
18339;DHT22;9295;44.484;11.240;2024-01-27T01:47:50;4.40;99.90
18339;DHT22;9295;44.484;11.240;2024-01-27T01:50:19;4.40;99.90
18339;DHT22;9295;44.484;11.240;2024-01-27T01:52:49;4.40;99.90
18339;DHT22;9295;44.484;11.240;2024-01-27T01:55:17;4.40;99.90
18339;DHT22;9295;44.484;11.240;2024-01-27T01:57:46;4.40;99.90
18339;DHT22;9295;44.484;11.240;2024-01-27T02:00:16;4.40;99.90
18339;DHT22;9295;44.484;11.240;2024-01-27T02:02:48;4.40;99.90
18339;DHT22;9295;44.484;11.240;2024-01-27T02:05:16;4.40;99.90
18339;DHT22;9295;44.484;11.240;2024-01-27T02:07:45;4.40;99.90
18339;DHT22;9295;44.484;11.240;2024-01-27T02:10:14;4.30;99.90
18339;DHT22;9295;44.484;11.240;2024-01-27T02:12:43;4.30;99.90
18339;DHT22;9295;44.484;11.240;2024-01-27T02:15:13;4.20;99.90
18339;DHT22;9295;44.484;11.240;2024-01-27T02:17:42;4.20;99.90
18339;DHT22;9295;44.484;11.240;2024-01-27T02:20:12;4.20;99.90
18339;DHT22;9295;44.484;11.240;2024-01-27T02:22:40;4.20;99.90
18339;DHT22;9295;44.484;11.240;2024-01-27T02:25:10;4.20;99.90
18339;DHT22;9295;44.484;11.240;2024-01-27T02:27:39;4.20;99.90
18339;DHT22;9295;44.484;11.240;2024-01-27T02:30:08;4.20;99.90
18339;DHT22;9295;44.484;11.240;2024-01-27T02:32:37;4.30;99.90
18339;DHT22;9295;44.484;11.240;2024-01-27T02:35:06;4.30;99.90
18339;DHT22;9295;44.484;11.240;2024-01-27T02:37:35;4.30;99.90
18339;DHT22;9295;44.484;11.240;2024-01-27T02:40:04;4.30;99.90
18339;DHT22;9295;44.484;11.240;2024-01-27T02:42:34;4.30;99.90
18339;DHT22;9295;44.484;11.240;2024-01-27T02:45:03;4.20;99.90
18339;DHT22;9295;44.484;11.240;2024-01-27T02:47:32;4.20;99.90
18339;DHT22;9295;44.484;11.240;2024-01-27T02:50:00;4.20;99.90
18339;DHT22;9295;44.484;11.240;2024-01-27T02:52:29;4.10;99.90
18339;DHT22;9295;44.484;11.240;2024-01-27T02:54:57;4.10;99.90
18339;DHT22;9295;44.484;11.240;2024-01-27T02:57:26;4.10;99.90
18339;DHT22;9295;44.484;11.240;2024-01-27T02:59:56;4.10;99.90
18339;DHT22;9295;44.484;11.240;2024-01-27T03:02:24;4.00;99.90
18339;DHT22;9295;44.484;11.240;2024-01-27T03:04:53;4.00;99.90
18339;DHT22;9295;44.484;11.240;2024-01-27T03:07:22;3.90;99.90
18339;DHT22;9295;44.484;11.240;2024-01-27T03:09:50;3.90;99.90
18339;DHT22;9295;44.484;11.240;2024-01-27T03:12:19;3.90;99.90
18339;DHT22;9295;44.484;11.240;2024-01-27T03:14:51;3.90;99.90
18339;DHT22;9295;44.484;11.240;2024-01-27T03:17:22;3.80;99.90
18339;DHT22;9295;44.484;11.240;2024-01-27T03:19:50;3.80;99.90
18339;DHT22;9295;44.484;11.240;2024-01-27T03:22:19;3.70;99.90
18339;DHT22;9295;44.484;11.240;2024-01-27T03:24:47;3.70;99.90
18339;DHT22;9295;44.484;11.240;2024-01-27T03:27:17;3.70;99.90
18339;DHT22;9295;44.484;11.240;2024-01-27T03:29:46;3.80;99.90
18339;DHT22;9295;44.484;11.240;2024-01-27T03:32:15;3.80;99.90
18339;DHT22;9295;44.484;11.240;2024-01-27T03:34:45;3.80;99.90
18339;DHT22;9295;44.484;11.240;2024-01-27T03:37:13;3.80;99.90
18339;DHT22;9295;44.484;11.240;2024-01-27T03:39:42;3.70;99.90
18339;DHT22;9295;44.484;11.240;2024-01-27T03:42:11;3.70;99.90
18339;DHT22;9295;44.484;11.240;2024-01-27T03:44:39;3.60;99.90
18339;DHT22;9295;44.484;11.240;2024-01-27T03:47:07;3.60;99.90
18339;DHT22;9295;44.484;11.240;2024-01-27T03:49:36;3.60;99.90
18339;DHT22;9295;44.484;11.240;2024-01-27T03:52:06;3.60;99.90
18339;DHT22;9295;44.484;11.240;2024-01-27T03:54:35;3.70;99.90
18339;DHT22;9295;44.484;11.240;2024-01-27T03:57:03;3.70;99.90
18339;DHT22;9295;44.484;11.240;2024-01-27T03:59:32;3.70;99.90
18339;DHT22;9295;44.484;11.240;2024-01-27T04:02:00;3.70;99.90
18339;DHT22;9295;44.484;11.240;2024-01-27T04:04:29;3.70;99.90
18339;DHT22;9295;44.484;11.240;2024-01-27T04:06:57;3.70;99.90
18339;DHT22;9295;44.484;11.240;2024-01-27T04:09:27;3.70;99.90
18339;DHT22;9295;44.484;11.240;2024-01-27T04:11:56;3.80;99.90
18339;DHT22;9295;44.484;11.240;2024-01-27T04:14:25;3.80;99.90
18339;DHT22;9295;44.484;11.240;2024-01-27T04:16:53;3.70;99.90
18339;DHT22;9295;44.484;11.240;2024-01-27T04:19:22;3.70;99.90
18339;DHT22;9295;44.484;11.240;2024-01-27T04:21:50;3.60;99.90
18339;DHT22;9295;44.484;11.240;2024-01-27T04:24:19;3.70;99.90
18339;DHT22;9295;44.484;11.240;2024-01-27T04:26:49;3.70;99.90
18339;DHT22;9295;44.484;11.240;2024-01-27T04:29:17;3.70;99.90
18339;DHT22;9295;44.484;11.240;2024-01-27T04:31:46;3.60;99.90
18339;DHT22;9295;44.484;11.240;2024-01-27T04:34:14;3.60;99.90
18339;DHT22;9295;44.484;11.240;2024-01-27T04:36:43;3.60;99.90
18339;DHT22;9295;44.484;11.240;2024-01-27T04:39:11;3.70;99.90
18339;DHT22;9295;44.484;11.240;2024-01-27T04:41:41;3.80;99.90
18339;DHT22;9295;44.484;11.240;2024-01-27T04:44:12;3.80;99.90
18339;DHT22;9295;44.484;11.240;2024-01-27T04:46:41;3.90;99.90
18339;DHT22;9295;44.484;11.240;2024-01-27T04:49:09;3.90;99.90
18339;DHT22;9295;44.484;11.240;2024-01-27T04:51:38;4.00;99.90
18339;DHT22;9295;44.484;11.240;2024-01-27T04:54:08;4.10;99.90
18339;DHT22;9295;44.484;11.240;2024-01-27T04:56:37;4.10;99.90
18339;DHT22;9295;44.484;11.240;2024-01-27T04:59:05;4.10;99.90
18339;DHT22;9295;44.484;11.240;2024-01-27T05:01:35;4.20;99.90
18339;DHT22;9295;44.484;11.240;2024-01-27T05:04:03;4.20;99.90
18339;DHT22;9295;44.484;11.240;2024-01-27T05:06:33;4.20;99.90
18339;DHT22;9295;44.484;11.240;2024-01-27T05:09:01;4.20;99.90
18339;DHT22;9295;44.484;11.240;2024-01-27T05:11:31;4.20;99.90
18339;DHT22;9295;44.484;11.240;2024-01-27T05:13:59;4.10;99.90
18339;DHT22;9295;44.484;11.240;2024-01-27T05:16:28;4.10;99.90
18339;DHT22;9295;44.484;11.240;2024-01-27T05:18:58;4.00;99.90
18339;DHT22;9295;44.484;11.240;2024-01-27T05:21:27;4.00;99.90
18339;DHT22;9295;44.484;11.240;2024-01-27T05:23:55;4.00;99.90
18339;DHT22;9295;44.484;11.240;2024-01-27T05:26:24;3.90;99.90
18339;DHT22;9295;44.484;11.240;2024-01-27T05:28:52;3.90;99.90
18339;DHT22;9295;44.484;11.240;2024-01-27T05:31:21;3.90;99.90
18339;DHT22;9295;44.484;11.240;2024-01-27T05:33:49;3.90;99.90
18339;DHT22;9295;44.484;11.240;2024-01-27T05:36:20;3.80;99.90
18339;DHT22;9295;44.484;11.240;2024-01-27T05:38:48;3.80;99.90
18339;DHT22;9295;44.484;11.240;2024-01-27T05:41:17;3.80;99.90
18339;DHT22;9295;44.484;11.240;2024-01-27T05:43:45;3.80;99.90
18339;DHT22;9295;44.484;11.240;2024-01-27T05:46:13;3.80;99.90
18339;DHT22;9295;44.484;11.240;2024-01-27T05:48:42;3.80;99.90
18339;DHT22;9295;44.484;11.240;2024-01-27T05:51:10;3.80;99.90
18339;DHT22;9295;44.484;11.240;2024-01-27T05:53:40;3.80;99.90
18339;DHT22;9295;44.484;11.240;2024-01-27T05:56:09;3.90;99.90
18339;DHT22;9295;44.484;11.240;2024-01-27T05:58:38;3.90;99.90
18339;DHT22;9295;44.484;11.240;2024-01-27T06:01:06;3.90;99.90
18339;DHT22;9295;44.484;11.240;2024-01-27T06:03:36;3.90;99.90
18339;DHT22;9295;44.484;11.240;2024-01-27T06:06:05;3.90;99.90
18339;DHT22;9295;44.484;11.240;2024-01-27T06:08:34;3.90;99.90
18339;DHT22;9295;44.484;11.240;2024-01-27T06:11:04;3.90;99.90
18339;DHT22;9295;44.484;11.240;2024-01-27T06:13:36;3.80;99.90
18339;DHT22;9295;44.484;11.240;2024-01-27T06:16:07;3.90;99.90
18339;DHT22;9295;44.484;11.240;2024-01-27T06:18:37;3.90;99.90
18339;DHT22;9295;44.484;11.240;2024-01-27T06:21:05;3.90;99.90
18339;DHT22;9295;44.484;11.240;2024-01-27T06:23:34;3.80;99.90
18339;DHT22;9295;44.484;11.240;2024-01-27T06:26:06;3.80;99.90
18339;DHT22;9295;44.484;11.240;2024-01-27T06:28:35;3.90;99.90
18339;DHT22;9295;44.484;11.240;2024-01-27T06:31:04;3.90;99.90
18339;DHT22;9295;44.484;11.240;2024-01-27T06:33:34;3.90;99.90
18339;DHT22;9295;44.484;11.240;2024-01-27T06:36:03;3.90;99.90
18339;DHT22;9295;44.484;11.240;2024-01-27T06:38:32;3.90;99.90
18339;DHT22;9295;44.484;11.240;2024-01-27T06:41:00;3.90;99.90
18339;DHT22;9295;44.484;11.240;2024-01-27T06:43:30;3.80;99.90
18339;DHT22;9295;44.484;11.240;2024-01-27T06:45:59;3.80;99.90
18339;DHT22;9295;44.484;11.240;2024-01-27T06:48:27;3.80;99.90
18339;DHT22;9295;44.484;11.240;2024-01-27T06:50:56;3.80;99.90
18339;DHT22;9295;44.484;11.240;2024-01-27T06:53:24;3.90;99.90
18339;DHT22;9295;44.484;11.240;2024-01-27T06:55:53;3.90;99.90
18339;DHT22;9295;44.484;11.240;2024-01-27T06:58:21;3.90;99.90
18339;DHT22;9295;44.484;11.240;2024-01-27T07:00:51;3.90;99.90
18339;DHT22;9295;44.484;11.240;2024-01-27T07:03:20;3.90;99.90
18339;DHT22;9295;44.484;11.240;2024-01-27T07:05:49;4.00;99.90
18339;DHT22;9295;44.484;11.240;2024-01-27T07:08:17;4.00;99.90
18339;DHT22;9295;44.484;11.240;2024-01-27T07:10:46;4.10;99.90
18339;DHT22;9295;44.484;11.240;2024-01-27T07:13:14;4.20;99.90
18339;DHT22;9295;44.484;11.240;2024-01-27T07:15:43;4.20;99.90
18339;DHT22;9295;44.484;11.240;2024-01-27T07:18:13;4.20;99.90
18339;DHT22;9295;44.484;11.240;2024-01-27T07:20:42;4.30;99.90
18339;DHT22;9295;44.484;11.240;2024-01-27T07:23:11;4.40;99.90
18339;DHT22;9295;44.484;11.240;2024-01-27T07:25:39;4.60;99.90
18339;DHT22;9295;44.484;11.240;2024-01-27T07:28:08;5.60;99.90
18339;DHT22;9295;44.484;11.240;2024-01-27T07:30:37;6.80;99.90
18339;DHT22;9295;44.484;11.240;2024-01-27T07:33:05;8.10;99.90
18339;DHT22;9295;44.484;11.240;2024-01-27T07:35:35;9.10;99.90
18339;DHT22;9295;44.484;11.240;2024-01-27T07:38:04;10.10;99.90
18339;DHT22;9295;44.484;11.240;2024-01-27T07:40:32;11.00;99.90
18339;DHT22;9295;44.484;11.240;2024-01-27T07:43:01;11.60;99.90
18339;DHT22;9295;44.484;11.240;2024-01-27T07:45:30;12.50;99.90
18339;DHT22;9295;44.484;11.240;2024-01-27T07:47:59;13.20;99.90
18339;DHT22;9295;44.484;11.240;2024-01-27T07:50:28;13.60;99.90
18339;DHT22;9295;44.484;11.240;2024-01-27T07:52:58;13.80;99.90
18339;DHT22;9295;44.484;11.240;2024-01-27T07:55:27;14.30;99.90
18339;DHT22;9295;44.484;11.240;2024-01-27T07:57:55;14.70;99.90
18339;DHT22;9295;44.484;11.240;2024-01-27T08:00:24;14.30;99.90
18339;DHT22;9295;44.484;11.240;2024-01-27T08:02:52;14.50;99.90
18339;DHT22;9295;44.484;11.240;2024-01-27T08:05:21;14.40;99.90
18339;DHT22;9295;44.484;11.240;2024-01-27T08:07:49;13.50;99.90
18339;DHT22;9295;44.484;11.240;2024-01-27T08:10:19;12.90;99.90
18339;DHT22;9295;44.484;11.240;2024-01-27T08:12:48;11.80;99.90
18339;DHT22;9295;44.484;11.240;2024-01-27T08:15:16;10.90;99.90
18339;DHT22;9295;44.484;11.240;2024-01-27T08:17:45;10.30;99.90
18339;DHT22;9295;44.484;11.240;2024-01-27T08:20:14;9.60;99.90
18339;DHT22;9295;44.484;11.240;2024-01-27T08:22:42;9.20;99.90
18339;DHT22;9295;44.484;11.240;2024-01-27T08:25:10;9.20;99.90
18339;DHT22;9295;44.484;11.240;2024-01-27T08:27:40;9.20;99.90
18339;DHT22;9295;44.484;11.240;2024-01-27T08:30:10;8.80;99.90
18339;DHT22;9295;44.484;11.240;2024-01-27T08:32:38;8.70;99.90
18339;DHT22;9295;44.484;11.240;2024-01-27T08:35:08;8.50;99.90
18339;DHT22;9295;44.484;11.240;2024-01-27T08:37:37;8.80;99.90
18339;DHT22;9295;44.484;11.240;2024-01-27T08:40:07;9.10;99.90
18339;DHT22;9295;44.484;11.240;2024-01-27T08:42:36;9.40;99.90
18339;DHT22;9295;44.484;11.240;2024-01-27T08:45:07;9.40;99.90
18339;DHT22;9295;44.484;11.240;2024-01-27T08:47:35;9.50;99.90
18339;DHT22;9295;44.484;11.240;2024-01-27T08:50:06;9.40;99.90
18339;DHT22;9295;44.484;11.240;2024-01-27T08:52:34;9.30;99.90
18339;DHT22;9295;44.484;11.240;2024-01-27T08:55:06;9.40;99.90
18339;DHT22;9295;44.484;11.240;2024-01-27T08:57:35;9.60;99.90
18339;DHT22;9295;44.484;11.240;2024-01-27T09:00:06;9.70;99.90
18339;DHT22;9295;44.484;11.240;2024-01-27T09:02:34;9.50;99.90
18339;DHT22;9295;44.484;11.240;2024-01-27T09:05:04;9.40;99.90
18339;DHT22;9295;44.484;11.240;2024-01-27T09:07:33;9.70;99.90
18339;DHT22;9295;44.484;11.240;2024-01-27T09:10:02;10.00;99.90
18339;DHT22;9295;44.484;11.240;2024-01-27T09:12:31;10.20;99.90
18339;DHT22;9295;44.484;11.240;2024-01-27T09:15:00;10.50;99.90
18339;DHT22;9295;44.484;11.240;2024-01-27T09:17:30;10.30;99.90
18339;DHT22;9295;44.484;11.240;2024-01-27T09:19:58;10.00;99.90
18339;DHT22;9295;44.484;11.240;2024-01-27T09:22:27;10.30;99.90
18339;DHT22;9295;44.484;11.240;2024-01-27T09:24:55;10.50;99.90
18339;DHT22;9295;44.484;11.240;2024-01-27T09:27:24;10.50;99.90
18339;DHT22;9295;44.484;11.240;2024-01-27T09:29:53;10.70;99.90
18339;DHT22;9295;44.484;11.240;2024-01-27T09:32:21;10.60;99.90
18339;DHT22;9295;44.484;11.240;2024-01-27T09:34:51;10.30;99.90
18339;DHT22;9295;44.484;11.240;2024-01-27T09:37:21;10.20;99.90
18339;DHT22;9295;44.484;11.240;2024-01-27T09:39:54;10.20;99.90
18339;DHT22;9295;44.484;11.240;2024-01-27T09:42:23;10.50;99.90
18339;DHT22;9295;44.484;11.240;2024-01-27T09:44:53;10.60;99.90
18339;DHT22;9295;44.484;11.240;2024-01-27T09:47:24;10.60;99.90
18339;DHT22;9295;44.484;11.240;2024-01-27T09:49:54;10.40;99.90
18339;DHT22;9295;44.484;11.240;2024-01-27T09:52:24;10.10;99.90
18339;DHT22;9295;44.484;11.240;2024-01-27T09:54:52;10.00;99.90
18339;DHT22;9295;44.484;11.240;2024-01-27T09:57:21;10.20;99.90
18339;DHT22;9295;44.484;11.240;2024-01-27T09:59:50;10.40;99.90
18339;DHT22;9295;44.484;11.240;2024-01-27T10:02:20;10.60;99.90
18339;DHT22;9295;44.484;11.240;2024-01-27T10:04:49;10.80;99.90
18339;DHT22;9295;44.484;11.240;2024-01-27T10:07:20;11.00;99.90
18339;DHT22;9295;44.484;11.240;2024-01-27T10:09:49;10.60;99.90
18339;DHT22;9295;44.484;11.240;2024-01-27T10:12:21;10.30;99.90
18339;DHT22;9295;44.484;11.240;2024-01-27T10:14:51;10.20;99.90
18339;DHT22;9295;44.484;11.240;2024-01-27T10:17:21;10.50;99.90
18339;DHT22;9295;44.484;11.240;2024-01-27T10:19:59;10.90;99.90
18339;DHT22;9295;44.484;11.240;2024-01-27T10:22:37;11.10;99.90
18339;DHT22;9295;44.484;11.240;2024-01-27T10:25:07;11.20;99.90
18339;DHT22;9295;44.484;11.240;2024-01-27T10:27:36;11.30;99.90
18339;DHT22;9295;44.484;11.240;2024-01-27T10:30:06;11.20;99.90
18339;DHT22;9295;44.484;11.240;2024-01-27T10:32:43;11.20;99.90
18339;DHT22;9295;44.484;11.240;2024-01-27T10:35:11;11.30;99.90
18339;DHT22;9295;44.484;11.240;2024-01-27T10:37:41;11.40;99.90
18339;DHT22;9295;44.484;11.240;2024-01-27T10:40:10;11.50;99.90
18339;DHT22;9295;44.484;11.240;2024-01-27T10:42:40;11.10;99.90
18339;DHT22;9295;44.484;11.240;2024-01-27T10:45:11;10.70;99.90
18339;DHT22;9295;44.484;11.240;2024-01-27T10:47:39;10.50;99.90
18339;DHT22;9295;44.484;11.240;2024-01-27T10:50:09;10.70;99.90
18339;DHT22;9295;44.484;11.240;2024-01-27T10:52:38;11.00;99.90
18339;DHT22;9295;44.484;11.240;2024-01-27T10:55:10;11.20;99.90
18339;DHT22;9295;44.484;11.240;2024-01-27T10:57:40;11.10;99.90
18339;DHT22;9295;44.484;11.240;2024-01-27T11:00:11;10.90;99.90
18339;DHT22;9295;44.484;11.240;2024-01-27T11:02:42;11.10;99.90
18339;DHT22;9295;44.484;11.240;2024-01-27T11:05:14;11.40;99.90
18339;DHT22;9295;44.484;11.240;2024-01-27T11:07:43;11.60;99.90
18339;DHT22;9295;44.484;11.240;2024-01-27T11:10:13;11.70;99.90
18339;DHT22;9295;44.484;11.240;2024-01-27T11:12:42;11.80;99.90
18339;DHT22;9295;44.484;11.240;2024-01-27T11:15:10;11.70;99.90
18339;DHT22;9295;44.484;11.240;2024-01-27T11:17:39;11.60;99.90
18339;DHT22;9295;44.484;11.240;2024-01-27T11:20:10;11.70;99.90
18339;DHT22;9295;44.484;11.240;2024-01-27T11:22:40;11.70;99.90
18339;DHT22;9295;44.484;11.240;2024-01-27T11:25:17;11.80;99.90
18339;DHT22;9295;44.484;11.240;2024-01-27T11:27:46;11.80;99.90
18339;DHT22;9295;44.484;11.240;2024-01-27T11:30:26;11.80;99.90
18339;DHT22;9295;44.484;11.240;2024-01-27T11:32:56;11.70;99.90
18339;DHT22;9295;44.484;11.240;2024-01-27T11:35:25;11.80;99.90
18339;DHT22;9295;44.484;11.240;2024-01-27T11:37:54;11.70;99.90
18339;DHT22;9295;44.484;11.240;2024-01-27T11:40:25;11.50;99.90
18339;DHT22;9295;44.484;11.240;2024-01-27T11:42:56;11.70;99.90
18339;DHT22;9295;44.484;11.240;2024-01-27T11:45:25;11.80;99.90
18339;DHT22;9295;44.484;11.240;2024-01-27T11:47:56;12.00;99.90
18339;DHT22;9295;44.484;11.240;2024-01-27T11:50:24;12.00;99.90
18339;DHT22;9295;44.484;11.240;2024-01-27T11:52:53;12.00;99.90
18339;DHT22;9295;44.484;11.240;2024-01-27T11:55:21;12.10;99.90
18339;DHT22;9295;44.484;11.240;2024-01-27T11:57:51;12.10;99.90
18339;DHT22;9295;44.484;11.240;2024-01-27T12:00:20;11.90;99.90
18339;DHT22;9295;44.484;11.240;2024-01-27T12:02:50;11.80;99.90
18339;DHT22;9295;44.484;11.240;2024-01-27T12:05:20;11.80;99.90
18339;DHT22;9295;44.484;11.240;2024-01-27T12:07:48;11.80;99.90
18339;DHT22;9295;44.484;11.240;2024-01-27T12:10:17;11.90;99.90
18339;DHT22;9295;44.484;11.240;2024-01-27T12:12:46;11.90;99.90
18339;DHT22;9295;44.484;11.240;2024-01-27T12:15:16;11.90;99.90
18339;DHT22;9295;44.484;11.240;2024-01-27T12:17:50;11.80;99.90
18339;DHT22;9295;44.484;11.240;2024-01-27T12:20:19;11.80;99.90
18339;DHT22;9295;44.484;11.240;2024-01-27T12:22:47;11.90;99.90
18339;DHT22;9295;44.484;11.240;2024-01-27T12:25:20;12.00;99.90
18339;DHT22;9295;44.484;11.240;2024-01-27T12:27:49;12.00;99.90
18339;DHT22;9295;44.484;11.240;2024-01-27T12:30:19;12.00;99.90
18339;DHT22;9295;44.484;11.240;2024-01-27T12:32:49;12.00;99.90
18339;DHT22;9295;44.484;11.240;2024-01-27T12:35:17;12.00;99.90
18339;DHT22;9295;44.484;11.240;2024-01-27T12:37:47;12.10;99.90
18339;DHT22;9295;44.484;11.240;2024-01-27T12:40:19;12.10;99.90
18339;DHT22;9295;44.484;11.240;2024-01-27T12:42:50;12.00;99.90
18339;DHT22;9295;44.484;11.240;2024-01-27T12:45:20;12.10;99.90
18339;DHT22;9295;44.484;11.240;2024-01-27T12:47:49;12.30;99.90
18339;DHT22;9295;44.484;11.240;2024-01-27T12:50:18;12.40;99.90
18339;DHT22;9295;44.484;11.240;2024-01-27T12:52:47;12.40;99.90
18339;DHT22;9295;44.484;11.240;2024-01-27T12:55:15;12.50;99.90
18339;DHT22;9295;44.484;11.240;2024-01-27T12:57:45;12.50;99.90
18339;DHT22;9295;44.484;11.240;2024-01-27T13:00:14;12.40;99.90
18339;DHT22;9295;44.484;11.240;2024-01-27T13:02:46;12.50;99.90
18339;DHT22;9295;44.484;11.240;2024-01-27T13:05:14;12.50;99.90
18339;DHT22;9295;44.484;11.240;2024-01-27T13:07:43;12.50;99.90
18339;DHT22;9295;44.484;11.240;2024-01-27T13:10:12;12.60;99.90
18339;DHT22;9295;44.484;11.240;2024-01-27T13:12:42;12.60;99.90
18339;DHT22;9295;44.484;11.240;2024-01-27T13:15:12;12.30;99.90
18339;DHT22;9295;44.484;11.240;2024-01-27T13:17:42;11.80;99.90
18339;DHT22;9295;44.484;11.240;2024-01-27T13:20:12;11.70;99.90
18339;DHT22;9295;44.484;11.240;2024-01-27T13:22:44;12.00;99.90
18339;DHT22;9295;44.484;11.240;2024-01-27T13:25:13;12.20;99.90
18339;DHT22;9295;44.484;11.240;2024-01-27T13:27:42;12.20;99.90
18339;DHT22;9295;44.484;11.240;2024-01-27T13:30:11;12.30;99.90
18339;DHT22;9295;44.484;11.240;2024-01-27T13:32:39;12.20;99.90
18339;DHT22;9295;44.484;11.240;2024-01-27T13:35:08;12.10;99.90
18339;DHT22;9295;44.484;11.240;2024-01-27T13:37:39;11.90;99.90
18339;DHT22;9295;44.484;11.240;2024-01-27T13:40:08;12.00;99.90
18339;DHT22;9295;44.484;11.240;2024-01-27T13:42:37;12.10;99.90
18339;DHT22;9295;44.484;11.240;2024-01-27T13:45:06;12.20;99.90
18339;DHT22;9295;44.484;11.240;2024-01-27T13:47:36;12.30;99.90
18339;DHT22;9295;44.484;11.240;2024-01-27T13:50:05;12.30;99.90
18339;DHT22;9295;44.484;11.240;2024-01-27T13:52:35;12.30;99.90
18339;DHT22;9295;44.484;11.240;2024-01-27T13:55:06;12.40;99.90
18339;DHT22;9295;44.484;11.240;2024-01-27T13:57:34;12.40;99.90
18339;DHT22;9295;44.484;11.240;2024-01-27T14:00:04;12.40;99.90
18339;DHT22;9295;44.484;11.240;2024-01-27T14:02:33;12.50;99.90
18339;DHT22;9295;44.484;11.240;2024-01-27T14:05:05;12.40;99.90
18339;DHT22;9295;44.484;11.240;2024-01-27T14:07:34;12.40;99.90
18339;DHT22;9295;44.484;11.240;2024-01-27T14:10:05;12.30;99.90
18339;DHT22;9295;44.484;11.240;2024-01-27T14:12:33;12.40;99.90
18339;DHT22;9295;44.484;11.240;2024-01-27T14:15:03;12.50;99.90
18339;DHT22;9295;44.484;11.240;2024-01-27T14:17:34;12.50;99.90
18339;DHT22;9295;44.484;11.240;2024-01-27T14:20:04;12.50;99.90
18339;DHT22;9295;44.484;11.240;2024-01-27T14:22:33;12.30;99.90
18339;DHT22;9295;44.484;11.240;2024-01-27T14:25:02;12.10;99.90
18339;DHT22;9295;44.484;11.240;2024-01-27T14:27:31;11.90;99.90
18339;DHT22;9295;44.484;11.240;2024-01-27T14:30:00;11.90;99.90
18339;DHT22;9295;44.484;11.240;2024-01-27T14:32:30;12.00;99.90
18339;DHT22;9295;44.484;11.240;2024-01-27T14:34:58;12.10;99.90
18339;DHT22;9295;44.484;11.240;2024-01-27T14:37:27;12.20;99.90
18339;DHT22;9295;44.484;11.240;2024-01-27T14:39:56;12.00;99.90
18339;DHT22;9295;44.484;11.240;2024-01-27T14:42:24;11.90;99.90
18339;DHT22;9295;44.484;11.240;2024-01-27T14:44:54;11.90;99.90
18339;DHT22;9295;44.484;11.240;2024-01-27T14:47:23;11.60;99.90
18339;DHT22;9295;44.484;11.240;2024-01-27T14:49:51;11.60;99.90
18339;DHT22;9295;44.484;11.240;2024-01-27T14:52:20;11.70;99.90
18339;DHT22;9295;44.484;11.240;2024-01-27T14:54:50;11.80;99.90
18339;DHT22;9295;44.484;11.240;2024-01-27T14:57:19;11.70;99.90
18339;DHT22;9295;44.484;11.240;2024-01-27T14:59:48;11.60;99.90
18339;DHT22;9295;44.484;11.240;2024-01-27T15:02:17;11.40;99.90
18339;DHT22;9295;44.484;11.240;2024-01-27T15:04:52;11.20;99.90
18339;DHT22;9295;44.484;11.240;2024-01-27T15:07:20;11.20;99.90
18339;DHT22;9295;44.484;11.240;2024-01-27T15:09:49;11.10;99.90
18339;DHT22;9295;44.484;11.240;2024-01-27T15:12:17;10.90;99.90
18339;DHT22;9295;44.484;11.240;2024-01-27T15:14:46;10.80;99.90
18339;DHT22;9295;44.484;11.240;2024-01-27T15:17:17;10.60;99.90
18339;DHT22;9295;44.484;11.240;2024-01-27T15:19:48;10.40;99.90
18339;DHT22;9295;44.484;11.240;2024-01-27T15:22:18;10.10;99.90
18339;DHT22;9295;44.484;11.240;2024-01-27T15:24:47;10.00;99.90
18339;DHT22;9295;44.484;11.240;2024-01-27T15:27:16;10.10;99.90
18339;DHT22;9295;44.484;11.240;2024-01-27T15:29:44;10.00;99.90
18339;DHT22;9295;44.484;11.240;2024-01-27T15:32:13;9.90;99.90
18339;DHT22;9295;44.484;11.240;2024-01-27T15:34:46;9.80;99.90
18339;DHT22;9295;44.484;11.240;2024-01-27T15:37:15;9.80;99.90
18339;DHT22;9295;44.484;11.240;2024-01-27T15:39:43;9.70;99.90
18339;DHT22;9295;44.484;11.240;2024-01-27T15:42:12;9.60;99.90
18339;DHT22;9295;44.484;11.240;2024-01-27T15:44:41;9.30;99.90
18339;DHT22;9295;44.484;11.240;2024-01-27T15:47:09;9.20;99.90
18339;DHT22;9295;44.484;11.240;2024-01-27T15:49:38;9.30;99.90
18339;DHT22;9295;44.484;11.240;2024-01-27T15:52:09;9.40;99.90